createdAt,value
2019-04-11T00:05:04.488Z,38
2019-04-11T00:20:04.471Z,38
2019-04-11T00:35:03.910Z,38
2019-04-11T00:50:05.815Z,38
2019-04-11T01:05:05.574Z,38
2019-04-11T01:20:05.108Z,38
2019-04-11T01:35:02.883Z,38
2019-04-11T01:50:05.630Z,37
2019-04-11T02:05:04.781Z,37
2019-04-11T02:20:05.177Z,37
2019-04-11T02:35:08.216Z,36
2019-04-11T02:50:06.432Z,35
2019-04-11T03:05:07.530Z,35
2019-04-11T03:20:26.262Z,35
2019-04-11T03:36:59.734Z,35
2019-04-11T03:50:15.269Z,34
2019-04-11T04:05:08.325Z,34
2019-04-11T04:20:05.588Z,33
2019-04-11T04:35:14.872Z,33
2019-04-11T04:50:06.548Z,33
2019-04-11T05:05:06.434Z,32
2019-04-11T05:20:05.258Z,32
2019-04-11T05:35:05.067Z,32
2019-04-11T05:50:11.566Z,31
2019-04-11T06:05:04.212Z,31
2019-04-11T06:20:04.515Z,31
2019-04-11T06:35:04.196Z,31
2019-04-11T06:50:03.894Z,31
2019-04-11T07:05:04.802Z,30
2019-04-11T07:20:06.963Z,30
2019-04-11T07:35:05.281Z,30
2019-04-11T07:50:03.622Z,30
2019-04-11T08:05:04.798Z,30
2019-04-11T08:20:06.359Z,29
2019-04-11T08:35:04.533Z,29
2019-04-11T08:50:06.247Z,29
2019-04-11T09:05:16.748Z,29
2019-04-11T09:20:03.646Z,29
2019-04-11T09:35:06.243Z,29
2019-04-11T09:50:04.531Z,29
2019-04-11T10:05:05.472Z,29
2019-04-11T10:20:04.943Z,29
2019-04-11T10:35:06.232Z,29
2019-04-11T10:50:04.852Z,29
2019-04-11T11:05:03.587Z,29
2019-04-11T11:20:21.324Z,29
2019-04-11T11:35:05.441Z,29
2019-04-11T11:50:07.820Z,29
2019-04-11T12:05:12.507Z,29
2019-04-11T12:20:13.235Z,29
2019-04-11T12:35:04.271Z,29
2019-04-11T12:50:04.363Z,29
2019-04-11T13:05:04.707Z,29
2019-04-11T13:20:05.315Z,29
2019-04-11T13:35:03.815Z,29
2019-04-11T13:50:16.959Z,29
2019-04-11T14:05:05.056Z,29
2019-04-11T14:20:03.776Z,29
2019-04-11T14:35:05.045Z,30
2019-04-11T14:50:03.535Z,29
2019-04-11T15:05:06.410Z,29
2019-04-11T15:20:04.272Z,29
2019-04-11T15:35:03.636Z,29
2019-04-11T15:50:04.762Z,29
2019-04-11T16:05:04.626Z,29
2019-04-11T16:20:04.361Z,29
2019-04-11T16:35:04.000Z,29
2019-04-11T16:50:04.141Z,29
2019-04-11T17:05:03.710Z,29
2019-04-11T17:20:06.817Z,29
2019-04-11T17:35:06.905Z,29
2019-04-11T17:50:06.161Z,29
2019-04-11T18:05:03.612Z,29
2019-04-11T18:20:07.572Z,29
2019-04-11T18:35:05.276Z,29
2019-04-11T18:50:04.316Z,29
2019-04-11T19:05:04.079Z,29
2019-04-11T19:20:04.635Z,29
2019-04-11T19:35:03.994Z,29
2019-04-11T19:50:03.619Z,29
2019-04-11T20:05:04.302Z,28
2019-04-11T20:20:07.938Z,28
2019-04-11T20:35:04.072Z,28
2019-04-11T20:50:08.097Z,28
2019-04-11T21:05:03.155Z,27
2019-04-11T21:20:03.970Z,27
2019-04-11T21:35:03.333Z,27
2019-04-11T21:50:04.070Z,27
2019-04-11T22:05:03.121Z,27
2019-04-11T22:20:03.664Z,27
2019-04-11T22:35:04.522Z,28
2019-04-11T22:50:04.031Z,28
2019-04-11T23:05:06.625Z,28
2019-04-11T23:20:03.886Z,28
2019-04-11T23:35:04.474Z,28
2019-04-11T23:50:04.170Z,28
